Plano, Illinois
Current Conditions -  °F | °C
As of 8:52 AM on Monday 22 Dec 2014 (Local Time) from KARR Reporting Station
Haze Haze  
Wind Chill: 26°   Ceiling: 5500
Heat Index: 34°   Visibility: 4mi
Dew Point: 27°   Wind: 10mph
Humidity: 75%   Direction: 110°ESE
Pressure: 29.87"   Gusts: NA
Location:  41.66°N, 88.54°W
Report Text: KARR 221452Z 11009KT 4SM HZ BKN055 OVC080 01/M03 A2987 RMK AO2 SLP122 T00111028 58016
Loading
Personal Weather Stations






























Interactive Weather Map New forecast layout! Learn more

10-Day Weather Forecast

Advertisements
Track Severe Weather on mobile